Terminal Aerodrome Forecast
Issued by NWS Wilmington, OH

Current Version | Previous Version | Graphics & Text | Print | Product List | Glossary On
Versions: 1 2 3 4 5 6 7 8 9 10 11 12 13 14 15 16 17 18 19 20 21 22
000
FTUS41 KILN 191608 AAD
TAFDAY
TAF AMD
KDAY 191608Z 1916/2012 25006KT 4SM BR OVC007
     FM191800 25005KT P6SM FEW025 SCT040
     FM192100 25006KT P6SM FEW025 FEW150
     FM201100 12003KT P6SM SCT030=

USA.gov is the U.S. government's official web portal to all federal, state and local government web resources and services.